Time;durP1;ratioP1;P1;durP2;ratioP2;P2;SDS_P1;SDS_P2;PMS_P1;PMS_P2;Temp;Humidity;BMP_temperature;BMP_pressure;BME280_temperature;BME280_humidity;BME280_pressure;Samples;Min_cycle;Max_cycle;Signal;HPM_P1;HPM_P2
2022/05/30 00:00:16;;;;;;;5.63;1.70;;;8.20;99.90;;;;;;5050410;28;20391;-65
2022/05/30 00:02:42;;;;;;;8.75;1.50;;;8.20;99.90;;;;;;5050130;28;20049;-65
2022/05/30 00:05:09;;;;;;;6.75;1.55;;;8.10;99.90;;;;;;5051009;28;20438;-65
2022/05/30 00:07:39;;;;;;;5.72;1.80;;;8.10;99.90;;;;;;5049243;28;20060;-65
2022/05/30 00:10:07;;;;;;;9.05;2.00;;;8.00;99.90;;;;;;5049537;28;20579;-64
2022/05/30 00:12:33;;;;;;;4.15;1.52;;;8.00;99.90;;;;;;5050479;28;20302;-65
2022/05/30 00:14:59;;;;;;;5.55;1.88;;;8.00;99.90;;;;;;5048907;28;20040;-65
2022/05/30 00:17:25;;;;;;;5.10;1.67;;;8.00;99.90;;;;;;5049796;28;20040;-65
2022/05/30 00:19:51;;;;;;;4.60;1.60;;;7.90;99.90;;;;;;5045870;28;20045;-65
2022/05/30 00:22:18;;;;;;;5.80;1.60;;;7.90;99.90;;;;;;5049508;28;20040;-65
2022/05/30 00:24:44;;;;;;;2.85;1.50;;;7.90;99.90;;;;;;5048597;28;20056;-64
2022/05/30 00:27:11;;;;;;;6.30;1.90;;;7.80;99.90;;;;;;5049950;28;20533;-65
2022/05/30 00:29:38;;;;;;;4.85;1.60;;;7.80;99.90;;;;;;5050340;28;20098;-65
2022/05/30 00:32:05;;;;;;;6.30;1.45;;;7.80;99.90;;;;;;5047815;28;20037;-65
2022/05/30 00:34:32;;;;;;;6.32;1.70;;;7.80;99.90;;;;;;5048718;28;20127;-64
2022/05/30 00:36:58;;;;;;;7.88;1.55;;;7.80;99.90;;;;;;5050057;28;20498;-65
2022/05/30 00:39:23;;;;;;;5.97;1.70;;;7.70;99.90;;;;;;5047295;28;20083;-65
2022/05/30 00:41:49;;;;;;;5.82;1.45;;;7.70;99.90;;;;;;5049377;28;20192;-64
2022/05/30 00:44:15;;;;;;;5.30;1.60;;;7.70;99.90;;;;;;5048977;28;20041;-65
2022/05/30 00:46:40;;;;;;;5.30;1.50;;;7.70;99.90;;;;;;5049511;28;20028;-65
2022/05/30 00:49:10;;;;;;;4.28;1.60;;;7.70;99.90;;;;;;5047971;28;20182;-65
2022/05/30 00:51:46;;;;;;;9.18;1.90;;;7.70;99.90;;;;;;5050138;28;20044;-65
2022/05/30 00:54:16;;;;;;;3.92;1.70;;;7.70;99.90;;;;;;5049697;28;20057;-65
2022/05/30 00:56:47;;;;;;;9.30;1.92;;;7.70;99.90;;;;;;5050126;28;20037;-65
2022/05/30 00:59:13;;;;;;;6.97;1.80;;;7.70;99.90;;;;;;5049646;28;20384;-65
2022/05/30 01:01:38;;;;;;;6.72;1.52;;;7.70;99.90;;;;;;5048514;28;20048;-64
2022/05/30 01:06:54;;;;;;;5.35;1.80;;;7.70;99.90;;;;;;5046926;28;20037;-65
2022/05/30 01:09:31;;;;;;;4.38;1.63;;;7.70;99.90;;;;;;5049330;28;20032;-64
2022/05/30 01:12:00;;;;;;;2.45;1.52;;;7.70;99.90;;;;;;5048897;28;20049;-65
2022/05/30 01:14:32;;;;;;;4.22;1.60;;;7.70;99.90;;;;;;5049846;28;20037;-64
2022/05/30 01:16:59;;;;;;;3.28;1.42;;;7.60;99.90;;;;;;5048480;28;20120;-65
2022/05/30 01:19:57;;;;;;;7.50;1.88;;;7.60;99.90;;;;;;5045264;28;20044;-64
2022/05/30 01:22:28;;;;;;;3.45;1.70;;;7.60;99.90;;;;;;5025917;28;20053;-65
2022/05/30 01:25:27;;;;;;;4.25;1.50;;;7.50;99.90;;;;;;5026551;28;20377;-65
2022/05/30 01:28:22;;;;;;;5.70;1.60;;;7.50;99.90;;;;;;5010770;28;20060;-64
2022/05/30 01:30:49;;;;;;;6.97;1.85;;;7.40;99.90;;;;;;5011032;28;20041;-65
2022/05/30 01:33:16;;;;;;;5.30;1.77;;;7.40;99.90;;;;;;5026610;28;20042;-65
2022/05/30 01:35:42;;;;;;;4.72;1.70;;;7.40;99.90;;;;;;5027102;28;20588;-65
2022/05/30 01:38:08;;;;;;;5.45;1.45;;;7.30;99.90;;;;;;5026479;28;20116;-65
2022/05/30 01:40:34;;;;;;;5.13;1.48;;;7.30;99.90;;;;;;5026366;28;20049;-65
2022/05/30 01:42:59;;;;;;;8.45;1.88;;;7.20;99.90;;;;;;5026322;28;20045;-65
2022/05/30 01:45:27;;;;;;;4.43;1.77;;;7.20;99.90;;;;;;5010379;28;20063;-65
2022/05/30 01:47:53;;;;;;;4.78;1.63;;;7.10;99.90;;;;;;5010149;28;20057;-65
2022/05/30 01:50:21;;;;;;;6.10;1.70;;;7.10;99.90;;;;;;4993411;28;20793;-65
2022/05/30 01:52:46;;;;;;;5.60;1.63;;;7.10;99.90;;;;;;5027427;28;20057;-65
2022/05/30 01:55:12;;;;;;;6.63;1.65;;;7.00;99.90;;;;;;5027269;28;20570;-65
2022/05/30 01:57:38;;;;;;;4.75;1.77;;;7.00;99.90;;;;;;5010651;28;20069;-64
2022/05/30 02:00:07;;;;;;;2.60;1.63;;;7.00;99.90;;;;;;5047792;28;20040;-65
2022/05/30 02:02:34;;;;;;;3.65;1.50;;;7.00;99.90;;;;;;5048510;28;20530;-65
2022/05/30 02:05:00;;;;;;;4.97;2.13;;;6.90;99.90;;;;;;5046952;28;20057;-65
2022/05/30 02:07:26;;;;;;;4.25;1.80;;;6.90;99.90;;;;;;5049394;28;20044;-64
2022/05/30 02:09:52;;;;;;;5.00;1.90;;;6.90;99.90;;;;;;5049532;28;20506;-65
2022/05/30 02:12:17;;;;;;;6.00;1.77;;;6.90;99.90;;;;;;5047632;28;20642;-65
2022/05/30 02:14:44;;;;;;;6.22;1.65;;;6.90;99.90;;;;;;5049506;28;20152;-65
2022/05/30 02:17:11;;;;;;;6.47;1.83;;;6.90;99.90;;;;;;5049061;28;20055;-65
2022/05/30 02:19:39;;;;;;;6.30;2.00;;;6.80;99.90;;;;;;5049372;28;20041;-64
2022/05/30 02:22:08;;;;;;;4.78;1.88;;;6.90;99.90;;;;;;5051326;28;20037;-65
2022/05/30 02:24:34;;;;;;;6.97;2.00;;;6.90;99.90;;;;;;5050382;28;20090;-65
2022/05/30 02:26:59;;;;;;;6.07;2.30;;;6.90;99.90;;;;;;5052580;28;20483;-65
2022/05/30 02:29:25;;;;;;;4.88;1.63;;;6.90;99.90;;;;;;5050832;28;20033;-65
2022/05/30 02:31:51;;;;;;;3.58;1.55;;;6.90;99.90;;;;;;5052088;28;20037;-65
2022/05/30 02:37:01;;;;;;;5.78;2.00;;;6.90;99.90;;;;;;5052636;28;20033;-65
2022/05/30 02:39:28;;;;;;;7.32;1.85;;;7.00;99.90;;;;;;5049256;28;20033;-65
2022/05/30 02:41:55;;;;;;;4.07;2.03;;;7.00;99.90;;;;;;5050257;28;20032;-64
2022/05/30 02:44:22;;;;;;;4.47;2.05;;;7.00;99.90;;;;;;5051010;28;20041;-65
2022/05/30 02:46:57;;;;;;;7.40;2.50;;;7.00;99.90;;;;;;5051132;28;20049;-65
2022/05/30 02:49:24;;;;;;;6.70;2.13;;;7.00;99.90;;;;;;5050142;28;20052;-65
2022/05/30 02:51:50;;;;;;;5.78;1.70;;;7.10;99.90;;;;;;5049785;28;20045;-65
2022/05/30 02:54:16;;;;;;;4.57;1.90;;;7.10;99.90;;;;;;5052296;28;20051;-64
2022/05/30 02:56:46;;;;;;;3.53;1.70;;;7.10;99.90;;;;;;5051813;28;20041;-65
2022/05/30 02:59:12;;;;;;;3.95;1.70;;;7.10;99.90;;;;;;5052696;28;20483;-65
2022/05/30 03:01:38;;;;;;;7.13;1.70;;;7.10;99.90;;;;;;5050404;28;20040;-64
2022/05/30 03:04:06;;;;;;;6.35;1.70;;;7.10;99.90;;;;;;5050064;28;20057;-65
2022/05/30 03:06:33;;;;;;;4.20;1.88;;;7.10;99.90;;;;;;5052183;28;20041;-65
2022/05/30 03:08:59;;;;;;;3.53;1.58;;;7.00;99.90;;;;;;5051829;28;20033;-65
2022/05/30 03:11:24;;;;;;;5.88;1.90;;;7.00;99.90;;;;;;5051274;28;20534;-65
2022/05/30 03:13:50;;;;;;;3.33;1.60;;;6.90;99.90;;;;;;5050712;28;20040;-65
2022/05/30 03:16:16;;;;;;;4.82;1.55;;;6.90;99.90;;;;;;5051047;28;20551;-65
2022/05/30 03:18:42;;;;;;;4.88;1.65;;;6.80;99.90;;;;;;5052160;28;20127;-65
2022/05/30 03:21:09;;;;;;;3.80;1.50;;;6.80;99.90;;;;;;5052101;28;20040;-65
2022/05/30 03:23:35;;;;;;;5.18;1.80;;;6.80;99.90;;;;;;5051389;28;20045;-65
2022/05/30 03:26:00;;;;;;;4.70;1.50;;;6.70;99.90;;;;;;5050897;28;20039;-65
2022/05/30 03:28:26;;;;;;;3.60;1.50;;;6.70;99.90;;;;;;5051587;28;20169;-64
2022/05/30 03:30:52;;;;;;;4.07;1.60;;;6.70;99.90;;;;;;5051794;28;20032;-65
2022/05/30 03:33:18;;;;;;;3.85;1.60;;;6.60;99.90;;;;;;5049982;28;20052;-64
2022/05/30 03:35:43;;;;;;;3.15;1.55;;;6.60;99.90;;;;;;5051079;28;20116;-64
2022/05/30 03:38:09;;;;;;;3.67;1.50;;;6.60;99.90;;;;;;5051786;28;20480;-65
2022/05/30 03:40:38;;;;;;;3.25;1.60;;;6.60;99.90;;;;;;5050742;28;20610;-65
2022/05/30 03:43:09;;;;;;;3.85;1.58;;;6.50;99.90;;;;;;5050259;28;20045;-65
2022/05/30 03:45:40;;;;;;;3.05;1.38;;;6.50;99.90;;;;;;5049289;28;20051;-64
2022/05/30 03:48:07;;;;;;;6.00;1.80;;;6.50;99.90;;;;;;5049575;28;20037;-65
2022/05/30 03:50:33;;;;;;;2.45;1.55;;;6.50;99.90;;;;;;5051572;28;20037;-65
2022/05/30 03:53:04;;;;;;;5.95;1.55;;;6.40;99.90;;;;;;5051352;28;20496;-65
2022/05/30 03:55:36;;;;;;;4.20;1.70;;;6.40;99.90;;;;;;5051100;28;20060;-65
2022/05/30 03:58:04;;;;;;;3.25;1.55;;;6.40;99.90;;;;;;5051237;28;20091;-64
2022/05/30 04:00:30;;;;;;;5.18;1.83;;;6.40;99.90;;;;;;5051502;28;20468;-65
2022/05/30 04:02:56;;;;;;;4.80;2.22;;;6.40;99.90;;;;;;5049763;28;20045;-65
2022/05/30 04:05:22;;;;;;;3.13;1.52;;;6.40;99.90;;;;;;5051350;28;20037;-65
2022/05/30 04:07:47;;;;;;;5.07;1.65;;;6.50;99.90;;;;;;5050935;28;20041;-64
2022/05/30 04:10:13;;;;;;;5.88;1.67;;;6.50;99.90;;;;;;5051122;28;20088;-65
2022/05/30 04:12:39;;;;;;;6.20;1.90;;;6.60;99.90;;;;;;5048021;28;20037;-65
2022/05/30 04:15:08;;;;;;;3.72;1.70;;;6.60;99.90;;;;;;5050757;28;20039;-65
2022/05/30 04:17:36;;;;;;;6.20;1.63;;;6.70;99.90;;;;;;5050169;28;20123;-65
2022/05/30 04:20:04;;;;;;;2.80;1.60;;;6.70;99.90;;;;;;5050485;28;20033;-64
2022/05/30 04:22:30;;;;;;;3.70;1.70;;;6.80;99.90;;;;;;5049588;28;20044;-66
2022/05/30 04:24:56;;;;;;;4.50;1.92;;;6.80;99.90;;;;;;5050522;28;20033;-66
2022/05/30 04:27:22;;;;;;;4.18;1.52;;;6.90;99.90;;;;;;5050234;28;20037;-65
2022/05/30 04:29:49;;;;;;;4.18;1.60;;;6.90;99.90;;;;;;5050452;28;20036;-65
2022/05/30 04:32:16;;;;;;;3.28;1.45;;;6.90;99.90;;;;;;5050326;28;20056;-65
2022/05/30 04:34:42;;;;;;;5.00;1.70;;;7.00;99.90;;;;;;5050714;28;20044;-64
2022/05/30 04:37:08;;;;;;;5.45;1.42;;;7.00;99.90;;;;;;5049098;28;20086;-65
2022/05/30 04:39:34;;;;;;;2.72;1.58;;;7.00;99.90;;;;;;5049127;28;20040;-64
2022/05/30 04:41:59;;;;;;;4.10;1.63;;;7.00;99.90;;;;;;5048124;28;20499;-65
2022/05/30 04:44:25;;;;;;;3.47;1.55;;;7.00;99.90;;;;;;5050177;28;20071;-65
2022/05/30 04:46:56;;;;;;;3.75;1.48;;;7.00;99.90;;;;;;5050695;28;20032;-65
2022/05/30 04:49:22;;;;;;;4.55;1.50;;;7.00;99.90;;;;;;5050214;28;20492;-65
2022/05/30 04:51:49;;;;;;;4.05;1.50;;;7.00;99.90;;;;;;5050475;28;20106;-65
2022/05/30 04:54:16;;;;;;;4.90;1.60;;;7.00;99.90;;;;;;5049176;28;20055;-65
2022/05/30 04:56:41;;;;;;;4.28;1.50;;;7.10;99.90;;;;;;5050808;28;20037;-65
2022/05/30 04:59:08;;;;;;;6.78;1.55;;;7.10;99.90;;;;;;5050195;28;20033;-66
2022/05/30 05:01:35;;;;;;;6.20;1.67;;;7.20;99.90;;;;;;5049977;28;20041;-65
2022/05/30 05:04:00;;;;;;;5.30;1.45;;;7.40;99.90;;;;;;5041755;28;20048;-65
2022/05/30 05:06:26;;;;;;;3.33;1.48;;;7.60;99.90;;;;;;5046312;28;20045;-65
2022/05/30 05:08:53;;;;;;;6.10;1.70;;;7.80;99.90;;;;;;5049063;28;20037;-65
2022/05/30 05:11:30;;;;;;;4.45;1.60;;;8.00;99.90;;;;;;5048131;28;20593;-65
2022/05/30 05:13:56;;;;;;;4.50;1.83;;;8.20;99.90;;;;;;5031448;28;20067;-66
2022/05/30 05:16:25;;;;;;;4.30;1.60;;;8.50;99.90;;;;;;5048733;28;20479;-66
2022/05/30 05:18:51;;;;;;;3.85;1.55;;;8.60;99.90;;;;;;5049948;28;20037;-65
2022/05/30 05:21:18;;;;;;;5.40;1.67;;;8.80;99.90;;;;;;5049719;28;20051;-65
2022/05/30 05:23:43;;;;;;;3.65;1.20;;;9.00;99.90;;;;;;5047714;28;20037;-65
2022/05/30 05:26:09;;;;;;;3.53;1.33;;;9.10;99.90;;;;;;5065673;28;20506;-65
2022/05/30 05:28:35;;;;;;;4.75;1.50;;;9.20;99.90;;;;;;5048483;28;20041;-65
2022/05/30 05:31:01;;;;;;;4.90;1.40;;;9.30;99.90;;;;;;5048813;28;20048;-65
2022/05/30 05:33:27;;;;;;;5.75;1.70;;;9.30;99.90;;;;;;5047971;28;20385;-65
2022/05/30 05:35:52;;;;;;;4.82;1.30;;;9.30;99.90;;;;;;5048813;28;20039;-65
2022/05/30 05:38:18;;;;;;;4.53;1.35;;;9.30;99.90;;;;;;5048735;28;20369;-65
2022/05/30 05:40:45;;;;;;;2.55;1.38;;;9.20;99.90;;;;;;5049530;28;20484;-66
2022/05/30 05:43:11;;;;;;;5.15;1.60;;;9.20;99.90;;;;;;5048128;28;20041;-65
2022/05/30 05:45:40;;;;;;;4.15;1.60;;;9.30;99.90;;;;;;5048625;28;20045;-65
2022/05/30 05:48:07;;;;;;;6.28;1.70;;;9.30;99.90;;;;;;5048880;28;20474;-65
2022/05/30 05:50:33;;;;;;;3.25;1.27;;;9.30;99.90;;;;;;5049823;28;20041;-65
2022/05/30 05:52:58;;;;;;;7.53;1.30;;;9.30;99.90;;;;;;5051678;28;20077;-65
2022/05/30 05:55:25;;;;;;;3.35;1.00;;;9.30;99.90;;;;;;5051167;28;20091;-65
2022/05/30 05:57:51;;;;;;;3.55;1.08;;;9.30;99.90;;;;;;5051318;28;20040;-65
2022/05/30 06:00:17;;;;;;;2.65;1.10;;;9.30;99.90;;;;;;5051502;28;20045;-65
2022/05/30 06:02:43;;;;;;;6.63;1.33;;;9.50;99.90;;;;;;5053005;28;20445;-65
2022/05/30 06:05:09;;;;;;;3.58;1.20;;;9.70;99.90;;;;;;5053492;28;20037;-65
2022/05/30 06:07:37;;;;;;;3.58;1.00;;;9.90;99.90;;;;;;5035255;28;20091;-65
2022/05/30 06:10:04;;;;;;;4.82;1.10;;;10.10;99.90;;;;;;5052456;28;20642;-65
2022/05/30 06:12:30;;;;;;;2.75;1.05;;;10.20;99.90;;;;;;5051954;28;20044;-65
2022/05/30 06:14:55;;;;;;;4.47;0.90;;;10.30;99.90;;;;;;5053138;28;20032;-66
2022/05/30 06:17:21;;;;;;;2.58;0.77;;;10.40;99.90;;;;;;5053382;28;20033;-65
2022/05/30 06:19:47;;;;;;;5.20;0.73;;;10.50;99.90;;;;;;5051451;28;20041;-66
2022/05/30 06:22:13;;;;;;;3.38;0.80;;;10.60;99.90;;;;;;5051873;28;20195;-65
2022/05/30 06:24:39;;;;;;;3.83;1.00;;;10.60;99.90;;;;;;5051663;28;20135;-65
2022/05/30 06:27:06;;;;;;;2.40;1.00;;;10.60;99.90;;;;;;5052855;28;20373;-64
2022/05/30 06:29:32;;;;;;;2.45;0.70;;;10.60;99.90;;;;;;5051946;28;20094;-65
2022/05/30 06:31:58;;;;;;;2.90;0.45;;;10.60;99.90;;;;;;5051452;28;20051;-66
2022/05/30 06:34:25;;;;;;;3.80;0.60;;;10.60;99.90;;;;;;5050884;28;20369;-66
2022/05/30 06:36:50;;;;;;;2.33;0.80;;;10.60;99.90;;;;;;5051083;28;20150;-65
2022/05/30 06:39:17;;;;;;;3.65;0.80;;;10.70;99.90;;;;;;5052801;28;20499;-66
2022/05/30 06:41:44;;;;;;;3.58;0.60;;;10.80;99.90;;;;;;5053059;28;20037;-65
2022/05/30 06:44:10;;;;;;;2.70;0.88;;;10.90;99.90;;;;;;5053093;28;20415;-65
2022/05/30 06:46:38;;;;;;;4.45;0.75;;;11.00;99.90;;;;;;5052635;28;20037;-66
2022/05/30 06:49:04;;;;;;;2.55;0.70;;;11.10;99.90;;;;;;5052600;28;20043;-66
2022/05/30 06:51:32;;;;;;;2.50;0.70;;;11.10;99.90;;;;;;5051502;28;20439;-65
2022/05/30 06:53:57;;;;;;;4.22;0.80;;;11.20;99.90;;;;;;5052167;28;20037;-65
2022/05/30 06:56:27;;;;;;;3.38;1.02;;;11.10;99.90;;;;;;5049740;28;20051;-65
2022/05/30 06:58:53;;;;;;;2.05;0.93;;;11.20;99.90;;;;;;5051219;28;20037;-65
2022/05/30 07:01:30;;;;;;;2.22;0.47;;;11.20;99.90;;;;;;5052233;28;20052;-65
2022/05/30 07:03:56;;;;;;;3.38;2.47;;;11.30;99.90;;;;;;5051258;28;20511;-66
2022/05/30 07:06:39;;;;;;;3.92;1.40;;;11.40;99.90;;;;;;5051958;28;20154;-65
2022/05/30 07:09:05;;;;;;;2.40;1.15;;;11.60;99.90;;;;;;5049876;28;20037;-66
2022/05/30 07:11:31;;;;;;;3.13;0.90;;;11.60;99.90;;;;;;5051134;28;20499;-65
2022/05/30 07:13:57;;;;;;;3.58;0.70;;;11.70;99.90;;;;;;5051154;28;20044;-66
2022/05/30 07:16:24;;;;;;;2.60;0.98;;;11.70;99.90;;;;;;5052041;28;20044;-65
2022/05/30 07:18:49;;;;;;;6.22;0.90;;;11.70;99.90;;;;;;5049679;28;20460;-66
2022/05/30 07:21:15;;;;;;;2.60;0.60;;;11.80;99.90;;;;;;5051694;28;20072;-66
2022/05/30 07:23:41;;;;;;;1.98;0.90;;;11.90;99.90;;;;;;5050701;28;20127;-65
2022/05/30 07:26:10;;;;;;;4.75;1.33;;;11.90;99.90;;;;;;5051590;28;20044;-66
2022/05/30 07:28:36;;;;;;;9.02;3.15;;;11.90;99.90;;;;;;5033791;28;20120;-66
2022/05/30 07:31:05;;;;;;;4.35;2.45;;;12.30;99.90;;;;;;5052023;28;20557;-66
2022/05/30 07:33:32;;;;;;;4.05;0.90;;;12.60;99.90;;;;;;5050602;28;20052;-65
2022/05/30 07:35:57;;;;;;;2.17;0.55;;;12.90;99.90;;;;;;5051952;28;20040;-66
2022/05/30 07:38:23;;;;;;;2.40;0.40;;;13.00;99.90;;;;;;5049278;28;20075;-66
2022/05/30 07:40:49;;;;;;;2.45;0.50;;;12.90;99.90;;;;;;5051925;28;20392;-65
2022/05/30 07:43:14;;;;;;;3.20;0.73;;;12.90;99.90;;;;;;5050354;28;20450;-65
2022/05/30 07:45:41;;;;;;;2.65;0.60;;;12.90;99.90;;;;;;5051661;28;20472;-66
2022/05/30 07:48:07;;;;;;;2.13;0.93;;;12.90;99.90;;;;;;5051622;28;20440;-65
2022/05/30 07:50:37;;;;;;;2.22;0.70;;;13.00;99.90;;;;;;5050219;28;20040;-66
2022/05/30 07:53:03;;;;;;;3.97;0.70;;;13.00;99.90;;;;;;5050321;28;20120;-65
2022/05/30 07:55:29;;;;;;;2.80;0.50;;;13.10;99.90;;;;;;5050853;28;20072;-65
2022/05/30 07:58:04;;;;;;;0.77;0.30;;;13.00;99.90;;;;;;5050289;28;20076;-66
2022/05/30 08:00:33;;;;;;;4.13;3.40;;;13.10;99.90;;;;;;5049931;28;20033;-66
2022/05/30 08:02:59;;;;;;;1.58;0.60;;;13.10;99.90;;;;;;5051168;28;20041;-65
2022/05/30 08:05:26;;;;;;;1.75;0.45;;;13.30;99.90;;;;;;5050660;28;20033;-64
2022/05/30 08:07:52;;;;;;;1.00;0.40;;;13.30;99.90;;;;;;5049149;28;20500;-64
2022/05/30 08:10:19;;;;;;;1.90;0.40;;;13.40;99.90;;;;;;5051180;28;20044;-67
2022/05/30 08:12:47;;;;;;;2.13;0.40;;;13.60;99.90;;;;;;5049421;28;20099;-70
2022/05/30 08:15:14;;;;;;;3.35;0.57;;;13.80;99.90;;;;;;5048981;28;20025;-67
2022/05/30 08:17:40;;;;;;;2.03;0.70;;;14.10;99.90;;;;;;5049758;28;20059;-70
2022/05/30 08:20:10;;;;;;;1.38;0.32;;;14.30;99.90;;;;;;5049168;28;20041;-63
2022/05/30 08:22:36;;;;;;;2.50;0.50;;;14.60;99.90;;;;;;5049314;28;20506;-65
2022/05/30 08:25:09;;;;;;;2.30;0.60;;;14.90;99.90;;;;;;5050642;28;20479;-66
2022/05/30 08:27:34;;;;;;;2.10;0.50;;;14.80;99.90;;;;;;5032767;28;20403;-70
2022/05/30 08:30:00;;;;;;;2.53;0.63;;;14.80;99.90;;;;;;5048892;28;20037;-70
2022/05/30 08:32:37;;;;;;;2.58;0.60;;;14.60;99.90;;;;;;5049750;28;20047;-64
2022/05/30 08:35:05;;;;;;;3.30;0.50;;;14.40;99.90;;;;;;5049909;28;20052;-67
2022/05/30 08:37:35;;;;;;;1.40;0.30;;;14.30;99.90;;;;;;5049808;28;20059;-62
2022/05/30 08:42:48;;;;;;;1.67;0.40;;;14.20;99.90;;;;;;5050328;28;20059;-64
2022/05/30 08:45:18;;;;;;;3.10;0.40;;;14.20;99.90;;;;;;5050609;28;20045;-65
2022/05/30 08:47:51;;;;;;;1.10;0.30;;;14.00;99.90;;;;;;5049294;28;20108;-65
2022/05/30 08:50:26;;;;;;;;;;;14.10;99.90;;;;;;5049388;28;20074;-65
2022/05/30 08:53:06;;;;;;;1.95;0.80;;;13.90;99.90;;;;;;5065048;28;19929;-64
2022/05/30 08:56:15;;;;;;;1.00;0.35;;;13.80;99.90;;;;;;5049027;28;20052;-65
2022/05/30 08:58:47;;;;;;;0.85;0.30;;;13.80;99.90;;;;;;5028117;28;20125;-64
2022/05/30 09:01:29;;;;;;;1.63;0.57;;;13.70;99.90;;;;;;5027827;28;20037;-65
2022/05/30 09:04:08;;;;;;;1.45;0.30;;;13.60;99.90;;;;;;5028031;28;20045;-65
2022/05/30 09:06:56;;;;;;;0.63;0.35;;;13.50;99.90;;;;;;5011780;28;20049;-64
2022/05/30 09:09:48;;;;;;;2.17;0.45;;;13.50;99.90;;;;;;5011305;28;20099;-65
2022/05/30 09:12:38;;;;;;;2.53;0.40;;;13.40;99.90;;;;;;5008511;28;20530;-64
2022/05/30 09:15:17;;;;;;;2.28;0.45;;;13.40;99.90;;;;;;5008983;28;20053;-64
2022/05/30 09:18:00;;;;;;;0.80;0.30;;;13.40;99.90;;;;;;5011416;28;20080;-65
2022/05/30 09:20:29;;;;;;;2.70;0.50;;;13.40;99.90;;;;;;5027629;28;20041;-64
2022/05/30 09:22:54;;;;;;;2.03;0.40;;;13.30;99.90;;;;;;5027793;28;20053;-63
2022/05/30 09:28:10;;;;;;;2.05;0.40;;;13.30;99.90;;;;;;5030977;28;20080;-64
2022/05/30 09:31:06;;;;;;;3.55;0.30;;;13.40;99.90;;;;;;5031363;28;20045;-63
2022/05/30 09:33:41;;;;;;;0.68;0.30;;;13.40;99.90;;;;;;5035931;28;20052;-63
2022/05/30 09:36:11;;;;;;;2.38;0.40;;;13.40;99.90;;;;;;5053910;28;20044;-64
2022/05/30 09:38:43;;;;;;;1.48;0.40;;;13.50;99.90;;;;;;5052987;28;20103;-64
2022/05/30 09:41:16;;;;;;;1.75;0.60;;;13.80;99.90;;;;;;5053298;28;20032;-63
2022/05/30 09:43:45;;;;;;;3.58;0.55;;;13.90;99.90;;;;;;5054081;28;20716;-63
2022/05/30 09:46:23;;;;;;;2.25;0.73;;;13.90;99.90;;;;;;5053815;28;20044;-64
2022/05/30 09:49:10;;;;;;;1.48;0.50;;;13.80;99.90;;;;;;5053474;28;20045;-64
2022/05/30 09:51:45;;;;;;;2.13;0.40;;;13.80;99.90;;;;;;5049887;28;20041;-63
2022/05/30 09:54:25;;;;;;;1.75;0.50;;;13.70;99.90;;;;;;5052916;28;20094;-64
2022/05/30 09:57:00;;;;;;;8.90;0.80;;;13.40;99.90;;;;;;5053326;28;20037;-64
2022/05/30 09:59:32;;;;;;;2.08;0.60;;;13.20;99.90;;;;;;5053254;28;20032;-64
2022/05/30 10:01:58;;;;;;;1.57;0.30;;;13.00;99.90;;;;;;5050140;28;20052;-64
2022/05/30 10:04:30;;;;;;;1.80;0.63;;;12.90;99.90;;;;;;5053168;28;20346;-63
2022/05/30 10:07:17;;;;;;;3.42;0.60;;;12.70;99.90;;;;;;5053071;28;20116;-64
2022/05/30 10:09:56;;;;;;;1.05;0.50;;;12.70;99.90;;;;;;5050801;28;20071;-63
2022/05/30 10:12:36;;;;;;;1.75;0.60;;;12.70;99.90;;;;;;5051290;28;20044;-64
2022/05/30 10:15:33;;;;;;;1.15;0.40;;;12.70;99.90;;;;;;5053165;28;20044;-64
2022/05/30 10:18:14;;;;;;;1.50;0.57;;;12.80;99.90;;;;;;5052849;28;20053;-64
2022/05/30 10:20:48;;;;;;;1.10;0.40;;;12.90;99.90;;;;;;5052651;28;20045;-63
2022/05/30 10:29:40;;;;;;;1.50;0.40;;;13.10;99.90;;;;;;5052957;28;20373;-64
2022/05/30 10:32:27;;;;;;;3.13;0.50;;;13.50;99.90;;;;;;5052698;28;20053;-63
2022/05/30 10:35:07;;;;;;;9.70;0.77;;;13.80;99.90;;;;;;5052627;28;20115;-64
2022/05/30 10:37:45;;;;;;;1.70;0.80;;;13.90;99.90;;;;;;5052544;28;20048;-64
2022/05/30 10:40:24;;;;;;;0.68;0.50;;;14.20;99.90;;;;;;5052350;28;20057;-64
2022/05/30 10:43:23;;;;;;;2.47;0.73;;;14.50;99.90;;;;;;5052762;28;20452;-64
2022/05/30 10:45:51;;;;;;;1.02;0.45;;;14.80;99.90;;;;;;5051774;28;20045;-63
2022/05/30 10:48:25;;;;;;;3.75;0.75;;;15.30;99.90;;;;;;5052302;28;20053;-64
2022/05/30 10:51:18;;;;;;;2.40;0.47;;;15.80;99.90;;;;;;5051182;28;20195;-64
2022/05/30 10:54:00;;;;;;;1.40;0.52;;;15.80;99.90;;;;;;5052182;28;20488;-64
2022/05/30 10:56:33;;;;;;;1.15;0.40;;;15.80;99.90;;;;;;5052521;28;20486;-64
2022/05/30 10:59:14;;;;;;;1.13;0.40;;;15.80;99.90;;;;;;5052340;28;20400;-64
2022/05/30 11:01:43;;;;;;;0.80;0.30;;;15.50;99.90;;;;;;5052407;28;20507;-64
2022/05/30 11:04:36;;;;;;;3.03;0.30;;;15.30;99.90;;;;;;5052325;28;20115;-64
2022/05/30 11:07:23;;;;;;;1.40;0.40;;;15.20;99.90;;;;;;5050810;28;20048;-64
2022/05/30 11:10:27;;;;;;;1.00;0.40;;;15.10;99.90;;;;;;5050978;28;20411;-63
2022/05/30 11:13:05;;;;;;;1.40;0.40;;;15.00;99.90;;;;;;5029790;28;20169;-64
2022/05/30 11:15:36;;;;;;;1.45;0.30;;;14.70;99.90;;;;;;5029878;28;20084;-64
2022/05/30 11:18:20;;;;;;;1.65;0.22;;;14.60;99.90;;;;;;5012105;28;20079;-64
2022/05/30 11:20:55;;;;;;;1.15;0.40;;;14.60;99.90;;;;;;5013110;28;20049;-64
2022/05/30 11:23:21;;;;;;;1.50;0.50;;;14.50;99.90;;;;;;5029671;28;20404;-64
2022/05/30 11:25:58;;;;;;;0.88;0.30;;;14.30;99.90;;;;;;5029350;28;20072;-63
2022/05/30 11:28:50;;;;;;;2.63;0.30;;;14.50;99.90;;;;;;5029335;28;20041;-63
2022/05/30 11:31:28;;;;;;;1.27;0.30;;;14.50;99.90;;;;;;5021939;28;20114;-64
2022/05/30 11:34:09;;;;;;;1.27;0.47;;;14.50;99.90;;;;;;5029263;28;20052;-63
2022/05/30 11:36:37;;;;;;;3.67;0.52;;;14.60;99.90;;;;;;5028672;28;20045;-64
2022/05/30 11:39:15;;;;;;;1.02;0.43;;;14.60;99.90;;;;;;5024848;28;20037;-64
2022/05/30 11:41:40;;;;;;;0.93;0.30;;;14.60;99.90;;;;;;5029246;28;20033;-64
2022/05/30 11:44:18;;;;;;;1.88;0.50;;;14.60;99.90;;;;;;5029115;28;20036;-63
2022/05/30 11:47:06;;;;;;;1.17;0.40;;;14.40;99.90;;;;;;5039035;28;20426;-63
2022/05/30 11:49:36;;;;;;;0.65;0.30;;;14.20;99.90;;;;;;5050224;28;20056;-64
2022/05/30 11:52:32;;;;;;;0.57;0.30;;;14.20;99.90;;;;;;5049814;28;20044;-64
2022/05/30 11:55:25;;;;;;;0.52;0.20;;;14.20;99.90;;;;;;5049739;28;20053;-64
2022/05/30 11:58:10;;;;;;;0.82;0.30;;;14.30;99.90;;;;;;5049190;28;20072;-63
2022/05/30 12:00:47;;;;;;;0.40;0.30;;;14.30;99.90;;;;;;5050980;28;20650;-64
2022/05/30 12:04:04;;;;;;;0.73;0.20;;;14.30;99.90;;;;;;5051223;28;20036;-64
2022/05/30 12:06:35;;;;;;;1.05;0.40;;;14.20;99.90;;;;;;5011832;28;20049;-63
2022/05/30 12:09:22;;;;;;;0.80;0.30;;;14.10;99.90;;;;;;5028572;28;20528;-63
2022/05/30 12:12:03;;;;;;;0.65;0.30;;;14.10;99.90;;;;;;5028482;28;20045;-64
2022/05/30 12:14:40;;;;;;;2.47;0.30;;;14.10;99.90;;;;;;5028431;28;20037;-64
2022/05/30 12:17:24;;;;;;;0.95;0.30;;;14.10;99.90;;;;;;5011881;28;20049;-64
2022/05/30 12:25:36;;;;;;;1.98;0.40;;;14.20;99.90;;;;;;5028737;28;20041;-63
2022/05/30 12:28:04;;;;;;;2.25;0.30;;;14.30;99.90;;;;;;5028166;28;20124;-63
2022/05/30 12:30:35;;;;;;;2.40;0.50;;;14.40;99.90;;;;;;5028262;28;20150;-64
2022/05/30 12:33:26;;;;;;;1.80;0.80;;;14.50;99.90;;;;;;5028427;28;20128;-63
2022/05/30 12:36:10;;;;;;;2.58;0.65;;;14.70;99.90;;;;;;5007294;28;20049;-64
2022/05/30 12:38:59;;;;;;;1.70;0.50;;;15.00;99.90;;;;;;5008566;28;20057;-63
2022/05/30 12:41:54;;;;;;;2.80;0.50;;;15.00;99.90;;;;;;5011904;28;20053;-64
2022/05/30 12:44:43;;;;;;;0.82;0.30;;;15.00;99.90;;;;;;5028181;28;20404;-64
2022/05/30 12:47:14;;;;;;;0.75;0.38;;;15.10;99.90;;;;;;5021133;28;20041;-64
2022/05/30 12:49:41;;;;;;;0.88;0.40;;;15.10;99.90;;;;;;5028168;28;20033;-63
2022/05/30 12:52:17;;;;;;;0.75;0.30;;;15.20;99.90;;;;;;5026891;28;20132;-64
2022/05/30 12:54:58;;;;;;;3.15;0.45;;;15.20;99.90;;;;;;5027181;28;20061;-63
2022/05/30 12:57:44;;;;;;;0.45;0.45;;;15.20;99.90;;;;;;5028003;28;20076;-63
2022/05/30 13:00:14;;;;;;;0.77;0.30;;;15.30;99.90;;;;;;5027592;28;20164;-63
2022/05/30 13:02:54;;;;;;;1.65;0.40;;;15.20;99.90;;;;;;5027718;28;20099;-64
2022/05/30 13:05:41;;;;;;;1.65;0.40;;;15.30;99.90;;;;;;5011538;28;20053;-63
2022/05/30 13:08:44;;;;;;;1.27;0.40;;;15.40;99.90;;;;;;5011766;28;20045;-63
2022/05/30 13:11:44;;;;;;;0.82;0.30;;;15.30;99.90;;;;;;5027983;28;20049;-63
2022/05/30 13:14:28;;;;;;;1.40;0.32;;;15.20;99.90;;;;;;5007875;28;20065;-63
2022/05/30 13:17:03;;;;;;;0.52;0.20;;;15.20;99.90;;;;;;5005543;28;20034;-64
2022/05/30 13:19:29;;;;;;;1.35;0.38;;;15.20;99.90;;;;;;5007540;28;20034;-63
2022/05/30 13:21:55;;;;;;;0.85;0.40;;;15.10;99.90;;;;;;5007428;28;20496;-63
2022/05/30 13:24:35;;;;;;;2.17;0.38;;;15.10;99.90;;;;;;5007699;28;20054;-63
2022/05/30 13:27:02;;;;;;;2.22;0.43;;;15.00;99.90;;;;;;5007793;28;20600;-63
2022/05/30 13:29:34;;;;;;;2.05;0.40;;;15.00;99.90;;;;;;5008188;28;20117;-63
2022/05/30 13:32:00;;;;;;;5.72;0.85;;;14.90;99.90;;;;;;5007485;28;20053;-63
2022/05/30 13:34:29;;;;;;;1.38;0.30;;;14.90;99.90;;;;;;5006935;28;20663;-63
2022/05/30 13:36:58;;;;;;;10.15;1.95;;;14.90;99.90;;;;;;4991578;28;20046;-63